Time,TemperatureF,DewpointF,PressureIn,WindDirection,WindDirectionDegrees,WindSpeedMPH,WindSpeedGustMPH,Humidity,HourlyPrecipIn,Conditions,Clouds,dailyrainin,SoftwareType,DateUTC
2013-01-10 00:02:00,28.3,20.7,30.33,South,188,10.4,10.4,73,0.00,CLR,,0.00,WeatherDisplay:10.37,2013-01-10 06:02:00,
2013-01-10 00:07:00,28.4,20.8,30.32,South,180,6.0,6.0,73,0.00,CLR,,0.00,WeatherDisplay:10.37,2013-01-10 06:07:00,
2013-01-10 00:12:00,28.5,20.9,30.32,SSE,163,12.0,12.0,73,0.00,CLR,,0.00,WeatherDisplay:10.37,2013-01-10 06:12:00,
2013-01-10 00:17:00,28.7,20.8,30.32,SE,145,4.6,4.6,72,0.00,CLR,,0.00,WeatherDisplay:10.37,2013-01-10 06:17:00,
2013-01-10 00:22:00,28.8,21.2,30.33,South,172,9.2,9.2,73,0.00,CLR,,0.00,WeatherDisplay:10.37,2013-01-10 06:22:00,
2013-01-10 00:27:00,28.8,21.2,30.33,South,171,5.8,5.8,73,0.00,CLR,,0.00,WeatherDisplay:10.37,2013-01-10 06:27:00,
2013-01-10 00:32:00,28.9,21.3,30.33,SSW,192,9.2,9.2,73,0.00,CLR,,0.00,WeatherDisplay:10.37,2013-01-10 06:32:00,
2013-01-10 00:37:00,29.0,21.4,30.33,SSE,157,8.1,8.1,73,0.00,CLR,,0.00,WeatherDisplay:10.37,2013-01-10 06:37:00,
2013-01-10 00:42:00,29.1,21.5,30.33,South,191,3.5,3.5,73,0.00,CLR,,0.00,WeatherDisplay:10.37,2013-01-10 06:42:00,
2013-01-10 00:47:00,29.2,21.6,30.33,South,182,4.6,4.6,73,0.00,CLR,,0.00,WeatherDisplay:10.37,2013-01-10 06:47:00,
2013-01-10 00:52:00,29.3,21.7,30.33,South,184,6.9,6.9,73,0.00,CLR,,0.00,WeatherDisplay:10.37,2013-01-10 06:52:00,
2013-01-10 00:57:00,29.4,21.8,30.33,SSE,160,4.6,4.6,73,0.00,CLR,,0.00,WeatherDisplay:10.37,2013-01-10 06:57:00,
2013-01-10 01:02:00,29.6,22.0,30.33,SSE,148,3.5,3.5,73,0.00,CLR,,0.00,WeatherDisplay:10.37,2013-01-10 07:02:00,
2013-01-10 01:07:00,29.7,22.1,30.33,SSE,148,7.0,7.0,73,0.00,CLR,,0.00,WeatherDisplay:10.37,2013-01-10 07:07:00,
2013-01-10 01:12:00,29.9,22.3,30.33,SSE,168,6.9,6.9,73,0.00,CLR,,0.00,WeatherDisplay:10.37,2013-01-10 07:12:00,
2013-01-10 01:17:00,30.1,22.5,30.33,South,186,9.2,9.2,73,0.00,CLR,,0.00,WeatherDisplay:10.37,2013-01-10 07:17:00,
2013-01-10 01:22:00,30.4,22.8,30.33,SSE,155,10.4,10.4,73,0.00,CLR,,0.00,WeatherDisplay:10.37,2013-01-10 07:22:00,
2013-01-10 01:27:00,30.6,22.6,30.33,SSW,198,9.2,9.2,72,0.00,CLR,,0.00,WeatherDisplay:10.37,2013-01-10 07:27:00,
2013-01-10 01:32:00,30.7,22.7,30.33,SSE,157,11.5,11.5,72,0.00,CLR,,0.00,WeatherDisplay:10.37,2013-01-10 07:32:00,
2013-01-10 01:37:00,30.9,22.9,30.33,SSW,194,10.4,10.4,72,0.00,CLR,,0.00,WeatherDisplay:10.37,2013-01-10 07:37:00,
2013-01-10 01:42:00,31.2,23.2,30.32,South,176,10.4,10.4,72,0.00,CLR,,0.00,WeatherDisplay:10.37,2013-01-10 07:42:00,
2013-01-10 01:47:00,31.5,23.2,30.33,South,182,11.5,11.5,71,0.00,CLR,,0.00,WeatherDisplay:10.37,2013-01-10 07:47:00,
2013-01-10 01:52:00,31.8,23.5,30.33,SSW,205,10.4,10.4,71,0.00,CLR,,0.00,WeatherDisplay:10.37,2013-01-10 07:52:00,
2013-01-10 01:57:00,32.2,23.5,30.33,South,186,16.1,16.1,70,0.00,CLR,,0.00,WeatherDisplay:10.37,2013-01-10 07:57:00,
2013-01-10 02:02:00,32.3,23.6,30.32,SSW,200,8.1,8.1,70,0.00,CLR,,0.00,WeatherDisplay:10.37,2013-01-10 08:02:00,
2013-01-10 02:07:00,32.4,23.7,30.32,SW,223,11.5,11.5,70,0.00,CLR,,0.00,WeatherDisplay:10.37,2013-01-10 08:07:00,
2013-01-10 02:12:00,32.6,23.9,30.32,SSW,213,12.7,12.7,70,0.00,CLR,,0.00,WeatherDisplay:10.37,2013-01-10 08:12:00,
2013-01-10 02:17:00,32.8,24.1,30.32,SSE,160,10.4,10.4,70,0.00,CLR,,0.00,WeatherDisplay:10.37,2013-01-10 08:17:00,
2013-01-10 02:22:00,33.0,23.9,30.32,South,175,10.4,10.4,69,0.00,CLR,,0.00,WeatherDisplay:10.37,2013-01-10 08:22:00,
2013-01-10 02:27:00,33.2,24.1,30.32,SSE,153,10.4,10.4,69,0.00,CLR,,0.00,WeatherDisplay:10.37,2013-01-10 08:27:00,
2013-01-10 02:32:00,33.3,24.2,30.32,SSE,163,3.5,3.5,69,0.00,CLR,,0.00,WeatherDisplay:10.37,2013-01-10 08:32:00,
2013-01-10 02:37:00,33.2,24.1,30.32,SE,138,5.8,5.8,69,0.00,CLR,,0.00,WeatherDisplay:10.37,2013-01-10 08:37:00,
2013-01-10 02:42:00,33.1,24.0,30.32,SSE,149,6.9,6.9,69,0.00,CLR,,0.00,WeatherDisplay:10.37,2013-01-10 08:42:00,
2013-01-10 02:47:00,33.1,24.0,30.32,ESE,119,4.6,4.6,69,0.00,CLR,,0.00,WeatherDisplay:10.37,2013-01-10 08:47:00,
2013-01-10 02:52:00,33.0,23.9,30.32,SSE,155,5.8,5.8,69,0.00,CLR,,0.00,WeatherDisplay:10.37,2013-01-10 08:52:00,
2013-01-10 02:57:00,33.1,24.0,30.32,SSE,165,3.5,3.5,69,0.00,CLR,,0.00,WeatherDisplay:10.37,2013-01-10 08:57:00,
2013-01-10 03:02:00,33.0,23.9,30.31,SSE,152,3.5,3.5,69,0.00,CLR,,0.00,WeatherDisplay:10.37,2013-01-10 09:02:00,
2013-01-10 03:07:00,33.0,23.9,30.31,SSW,206,3.5,3.5,69,0.00,CLR,,0.00,WeatherDisplay:10.37,2013-01-10 09:07:00,
2013-01-10 03:12:00,33.2,24.1,30.31,SSE,155,5.8,5.8,69,0.00,CLR,,0.00,WeatherDisplay:10.37,2013-01-10 09:12:00,
2013-01-10 03:17:00,33.6,24.2,30.31,SE,130,8.1,8.1,68,0.00,CLR,,0.00,WeatherDisplay:10.37,2013-01-10 09:17:00,
2013-01-10 03:22:00,33.9,24.1,30.31,SSE,161,3.5,3.5,67,0.00,CLR,,0.00,WeatherDisplay:10.37,2013-01-10 09:22:00,
2013-01-10 03:27:00,34.3,24.5,30.31,South,182,6.9,6.9,67,0.00,CLR,,0.00,WeatherDisplay:10.37,2013-01-10 09:27:00,
2013-01-10 03:32:00,34.4,24.2,30.31,SSW,200,9.2,9.2,66,0.00,CLR,,0.00,WeatherDisplay:10.37,2013-01-10 09:32:00,
2013-01-10 03:37:00,34.4,23.8,30.31,South,172,5.8,5.8,65,0.00,CLR,,0.00,WeatherDisplay:10.37,2013-01-10 09:37:00,
2013-01-10 03:42:00,34.6,24.0,30.31,SSE,148,5.8,5.8,65,0.00,CLR,,0.00,WeatherDisplay:10.37,2013-01-10 09:42:00,
2013-01-10 03:47:00,34.8,24.2,30.31,South,173,11.5,11.5,65,0.00,CLR,,0.00,WeatherDisplay:10.37,2013-01-10 09:47:00,
2013-01-10 03:52:00,35.0,24.0,30.31,SSE,168,3.5,3.5,64,0.00,CLR,,0.00,WeatherDisplay:10.37,2013-01-10 09:52:00,
2013-01-10 03:57:00,35.0,24.0,30.30,South,186,3.5,3.5,64,0.00,CLR,,0.00,WeatherDisplay:10.37,2013-01-10 09:57:00,
2013-01-10 04:02:00,35.0,24.0,30.30,SSW,204,5.0,5.0,64,0.00,CLR,,0.00,WeatherDisplay:10.37,2013-01-10 10:02:00,
2013-01-10 04:07:00,35.3,24.0,30.30,SSW,203,5.8,5.8,63,0.00,CLR,,0.00,WeatherDisplay:10.37,2013-01-10 10:07:00,
2013-01-10 04:12:00,35.5,24.1,30.30,South,178,6.9,6.9,63,0.00,CLR,,0.00,WeatherDisplay:10.37,2013-01-10 10:12:00,
2013-01-10 04:17:00,35.6,24.2,30.30,South,175,4.6,4.6,63,0.00,CLR,,0.00,WeatherDisplay:10.37,2013-01-10 10:17:00,
2013-01-10 04:22:00,35.6,24.2,30.29,South,182,5.8,5.8,63,0.00,CLR,,0.00,WeatherDisplay:10.37,2013-01-10 10:22:00,
2013-01-10 04:27:00,35.7,24.3,30.29,SE,146,5.8,5.8,63,0.00,CLR,,0.00,WeatherDisplay:10.37,2013-01-10 10:27:00,
2013-01-10 04:32:00,35.7,23.9,30.29,SSE,167,6.9,6.9,62,0.00,CLR,,0.00,WeatherDisplay:10.37,2013-01-10 10:32:00,
2013-01-10 04:37:00,35.8,24.0,30.29,SSW,199,4.6,4.6,62,0.00,CLR,,0.00,WeatherDisplay:10.37,2013-01-10 10:37:00,
2013-01-10 04:42:00,35.7,23.9,30.29,South,184,6.9,6.9,62,0.00,CLR,,0.00,WeatherDisplay:10.37,2013-01-10 10:42:00,
2013-01-10 04:47:00,35.6,23.9,30.29,SSE,166,3.5,3.5,62,0.00,CLR,,0.00,WeatherDisplay:10.37,2013-01-10 10:47:00,
2013-01-10 04:52:00,35.6,23.9,30.28,South,182,5.8,5.8,62,0.00,CLR,,0.00,WeatherDisplay:10.37,2013-01-10 10:52:00,
2013-01-10 04:57:00,35.9,24.1,30.29,SE,144,6.9,6.9,62,0.00,CLR,,0.00,WeatherDisplay:10.37,2013-01-10 10:57:00,
2013-01-10 05:02:00,36.1,24.3,30.28,South,189,12.7,12.7,62,0.00,CLR,,0.00,WeatherDisplay:10.37,2013-01-10 11:02:00,
2013-01-10 05:07:00,36.2,24.0,30.28,SSE,161,9.2,9.2,61,0.00,CLR,,0.00,WeatherDisplay:10.37,2013-01-10 11:07:00,
2013-01-10 05:12:00,36.3,24.1,30.28,SE,129,6.9,6.9,61,0.00,CLR,,0.00,WeatherDisplay:10.37,2013-01-10 11:12:00,
2013-01-10 05:18:00,36.4,24.2,30.28,SSE,153,6.9,6.9,61,0.00,CLR,,0.00,WeatherDisplay:10.37,2013-01-10 11:18:00,
2013-01-10 05:23:00,36.5,24.3,30.28,SW,236,3.5,4.3,61,0.00,CLR,,0.00,WeatherDisplay:10.37,2013-01-10 11:23:00,
2013-01-10 05:28:00,36.7,24.5,30.28,SSE,162,4.6,4.6,61,0.00,CLR,,0.00,WeatherDisplay:10.37,2013-01-10 11:28:00,
2013-01-10 05:33:00,36.7,24.5,30.28,SSE,153,10.4,10.4,61,0.00,CLR,,0.00,WeatherDisplay:10.37,2013-01-10 11:33:00,
2013-01-10 05:38:00,36.7,24.1,30.28,SSE,164,10.4,10.4,60,0.00,CLR,,0.00,WeatherDisplay:10.37,2013-01-10 11:38:00,
2013-01-10 05:43:00,36.6,24.0,30.28,SSE,156,4.6,4.6,60,0.00,CLR,,0.00,WeatherDisplay:10.37,2013-01-10 11:43:00,
2013-01-10 05:48:00,36.3,24.1,30.28,SSW,202,3.5,3.5,61,0.00,CLR,,0.00,WeatherDisplay:10.37,2013-01-10 11:48:00,
2013-01-10 05:53:00,36.1,23.9,30.28,South,181,3.5,3.5,61,0.00,CLR,,0.00,WeatherDisplay:10.37,2013-01-10 11:53:00,
2013-01-10 05:58:00,36.1,23.9,30.28,South,187,5.8,5.8,61,0.00,CLR,,0.00,WeatherDisplay:10.37,2013-01-10 11:58:00,
2013-01-10 06:03:00,36.1,23.9,30.28,South,184,6.9,6.9,61,0.00,CLR,,0.00,WeatherDisplay:10.37,2013-01-10 12:03:00,
2013-01-10 06:08:00,36.1,23.9,30.28,South,183,4.6,4.6,61,0.00,CLR,,0.00,WeatherDisplay:10.37,2013-01-10 12:08:00,
2013-01-10 06:13:00,36.0,23.4,30.28,South,169,3.5,3.5,60,0.00,CLR,,0.00,WeatherDisplay:10.37,2013-01-10 12:13:00,
2013-01-10 06:18:00,35.9,23.4,30.28,SSW,193,5.8,5.8,60,0.00,CLR,,0.00,WeatherDisplay:10.37,2013-01-10 12:18:00,
2013-01-10 06:23:00,35.8,23.3,30.28,SSE,153,3.5,3.5,60,0.00,CLR,,0.00,WeatherDisplay:10.37,2013-01-10 12:23:00,
2013-01-10 06:28:00,35.3,22.8,30.28,SE,130,3.5,3.5,60,0.00,CLR,,0.00,WeatherDisplay:10.37,2013-01-10 12:28:00,
2013-01-10 06:33:00,34.4,22.7,30.28,SE,137,5.8,5.8,62,0.00,CLR,,0.00,WeatherDisplay:10.37,2013-01-10 12:33:00,
2013-01-10 06:38:00,33.8,22.5,30.28,SE,136,8.1,8.1,63,0.00,CLR,,0.00,WeatherDisplay:10.37,2013-01-10 12:38:00,
2013-01-10 06:43:00,33.3,22.4,30.28,ESE,117,6.9,6.9,64,0.00,CLR,,0.00,WeatherDisplay:10.37,2013-01-10 12:43:00,
2013-01-10 06:48:00,32.8,22.7,30.28,SSE,155,6.9,6.9,66,0.00,CLR,,0.00,WeatherDisplay:10.37,2013-01-10 12:48:00,
2013-01-10 06:53:00,32.4,22.7,30.28,SE,135,4.6,4.6,67,0.00,CLR,,0.00,WeatherDisplay:10.37,2013-01-10 12:53:00,
2013-01-10 06:58:00,32.2,22.8,30.28,SSW,210,4.6,4.6,68,0.00,CLR,,0.00,WeatherDisplay:10.37,2013-01-10 12:58:00,
2013-01-10 07:03:00,32.2,22.8,30.27,South,186,5.8,5.8,68,0.00,CLR,,0.00,WeatherDisplay:10.37,2013-01-10 13:03:00,
2013-01-10 07:08:00,32.3,22.9,30.28,South,171,12.7,12.7,68,0.00,CLR,,0.00,WeatherDisplay:10.37,2013-01-10 13:08:00,
2013-01-10 07:13:00,32.4,23.0,30.28,SSW,198,5.8,5.8,68,0.00,CLR,,0.00,WeatherDisplay:10.37,2013-01-10 13:13:00,
2013-01-10 07:18:00,32.3,22.9,30.27,SSE,148,4.6,4.6,68,0.00,CLR,,0.00,WeatherDisplay:10.37,2013-01-10 13:18:00,
2013-01-10 07:23:00,32.6,22.8,30.27,South,180,10.4,10.4,67,0.00,CLR,,0.00,WeatherDisplay:10.37,2013-01-10 13:23:00,
2013-01-10 07:28:00,32.9,23.1,30.27,South,190,6.9,6.9,67,0.00,CLR,,0.00,WeatherDisplay:10.37,2013-01-10 13:28:00,
2013-01-10 07:33:00,33.3,23.5,30.27,SSE,156,12.7,12.7,67,0.00,CLR,,0.00,WeatherDisplay:10.37,2013-01-10 13:33:00,
2013-01-10 07:38:00,33.7,23.5,30.27,South,191,5.8,5.8,66,0.00,CLR,,0.00,WeatherDisplay:10.37,2013-01-10 13:38:00,
2013-01-10 07:43:00,34.0,23.5,30.27,South,169,4.6,4.6,65,0.00,CLR,,0.00,WeatherDisplay:10.37,2013-01-10 13:43:00,
2013-01-10 07:48:00,34.1,23.6,30.27,SSE,155,9.2,9.2,65,0.00,CLR,,0.00,WeatherDisplay:10.37,2013-01-10 13:48:00,
2013-01-10 07:53:00,34.0,23.5,30.27,SSW,198,6.9,6.9,65,0.00,CLR,,0.00,WeatherDisplay:10.37,2013-01-10 13:53:00,
2013-01-10 07:58:00,34.1,23.6,30.27,South,183,3.5,3.5,65,0.00,CLR,,0.00,WeatherDisplay:10.37,2013-01-10 13:58:00,
2013-01-10 08:03:00,34.1,23.9,30.27,South,186,16.1,16.1,66,0.00,CLR,,0.00,WeatherDisplay:10.37,2013-01-10 14:03:00,
2013-01-10 08:08:00,34.2,24.0,30.26,South,179,11.5,11.5,66,0.00,CLR,,0.00,WeatherDisplay:10.37,2013-01-10 14:08:00,
2013-01-10 08:13:00,34.2,24.0,30.26,SSE,153,8.1,8.1,66,0.00,CLR,,0.00,WeatherDisplay:10.37,2013-01-10 14:13:00,
2013-01-10 08:18:00,34.3,24.1,30.26,ESE,105,3.5,3.5,66,0.00,CLR,,0.00,WeatherDisplay:10.37,2013-01-10 14:18:00,
2013-01-10 08:23:00,34.3,24.1,30.26,South,175,5.8,5.8,66,0.00,CLR,,0.00,WeatherDisplay:10.37,2013-01-10 14:23:00,
2013-01-10 08:28:00,34.2,24.0,30.26,South,182,3.5,3.5,66,0.00,CLR,,0.00,WeatherDisplay:10.37,2013-01-10 14:28:00,
2013-01-10 08:33:00,34.4,24.2,30.26,SSE,150,9.2,9.2,66,0.00,CLR,,0.00,WeatherDisplay:10.37,2013-01-10 14:33:00,
2013-01-10 08:38:00,34.4,23.8,30.26,South,191,10.4,10.4,65,0.00,CLR,,0.00,WeatherDisplay:10.37,2013-01-10 14:38:00,
2013-01-10 08:43:00,34.6,24.0,30.26,South,177,13.8,13.8,65,0.00,CLR,,0.00,WeatherDisplay:10.37,2013-01-10 14:43:00,
2013-01-10 08:48:00,34.7,24.1,30.26,SSW,209,4.6,4.6,65,0.00,CLR,,0.00,WeatherDisplay:10.37,2013-01-10 14:48:00,
2013-01-10 08:53:00,34.8,24.2,30.26,South,171,10.4,10.4,65,0.00,CLR,,0.00,WeatherDisplay:10.37,2013-01-10 14:53:00,
2013-01-10 08:58:00,34.9,23.9,30.25,SE,144,11.5,11.5,64,0.00,CLR,,0.00,WeatherDisplay:10.37,2013-01-10 14:58:00,
2013-01-10 09:03:00,35.1,24.1,30.25,SE,143,6.9,6.9,64,0.00,CLR,,0.00,WeatherDisplay:10.37,2013-01-10 15:03:00,
2013-01-10 09:08:00,35.1,24.1,30.25,South,173,4.6,4.6,64,0.00,CLR,,0.00,WeatherDisplay:10.37,2013-01-10 15:08:00,
2013-01-10 09:13:00,35.0,24.0,30.25,SE,136,7.0,7.0,64,0.00,CLR,,0.00,WeatherDisplay:10.37,2013-01-10 15:13:00,
2013-01-10 09:18:00,35.1,23.8,30.25,South,191,10.4,10.4,63,0.00,CLR,,0.00,WeatherDisplay:10.37,2013-01-10 15:18:00,
2013-01-10 09:23:00,35.3,24.0,30.25,SSE,168,8.1,8.1,63,0.00,CLR,,0.00,WeatherDisplay:10.37,2013-01-10 15:23:00,
2013-01-10 09:28:00,35.6,23.9,30.25,SSW,192,5.8,5.8,62,0.00,CLR,,0.00,WeatherDisplay:10.37,2013-01-10 15:28:00,
2013-01-10 09:33:00,36.0,23.8,30.25,South,183,4.6,4.6,61,0.00,CLR,,0.00,WeatherDisplay:10.37,2013-01-10 15:33:00,
2013-01-10 09:38:00,36.3,23.3,30.25,SSW,194,6.9,6.9,59,0.00,CLR,,0.00,WeatherDisplay:10.37,2013-01-10 15:38:00,
2013-01-10 09:43:00,36.7,23.7,30.25,South,179,11.5,11.5,59,0.00,CLR,,0.00,WeatherDisplay:10.37,2013-01-10 15:43:00,
2013-01-10 09:48:00,36.8,23.4,30.25,SSE,167,10.4,10.4,58,0.00,CLR,,0.00,WeatherDisplay:10.37,2013-01-10 15:48:00,
2013-01-10 09:53:00,36.8,23.0,30.24,SSE,156,11.5,11.5,57,0.00,CLR,,0.00,WeatherDisplay:10.37,2013-01-10 15:53:00,
2013-01-10 09:58:00,36.8,23.0,30.24,SSE,168,4.6,4.6,57,0.00,CLR,,0.00,WeatherDisplay:10.37,2013-01-10 15:58:00,
2013-01-10 10:03:00,36.9,23.1,30.23,SSE,159,9.2,9.2,57,0.00,CLR,,0.00,WeatherDisplay:10.37,2013-01-10 16:03:00,
2013-01-10 10:08:00,37.0,23.2,30.23,South,188,3.5,3.5,57,0.00,CLR,,0.00,WeatherDisplay:10.37,2013-01-10 16:08:00,
2013-01-10 10:13:00,37.0,23.2,30.23,SSE,150,9.2,9.2,57,0.00,CLR,,0.00,WeatherDisplay:10.37,2013-01-10 16:13:00,
2013-01-10 10:18:00,37.0,23.2,30.23,South,186,11.5,11.5,57,0.00,CLR,,0.00,WeatherDisplay:10.37,2013-01-10 16:18:00,
2013-01-10 10:23:00,37.1,23.7,30.23,South,179,5.0,5.0,58,0.00,CLR,,0.00,WeatherDisplay:10.37,2013-01-10 16:23:00,
2013-01-10 10:28:00,37.5,23.6,30.23,South,186,6.0,6.0,57,0.00,CLR,,0.00,WeatherDisplay:10.37,2013-01-10 16:28:00,
2013-01-10 10:33:00,37.8,23.5,30.22,South,186,11.5,11.5,56,0.00,CLR,,0.00,WeatherDisplay:10.37,2013-01-10 16:33:00,
2013-01-10 10:38:00,38.2,23.9,30.22,SSE,167,6.9,6.9,56,0.00,CLR,,0.00,WeatherDisplay:10.37,2013-01-10 16:38:00,
2013-01-10 10:43:00,38.5,23.7,30.22,South,177,11.5,11.5,55,0.00,CLR,,0.00,WeatherDisplay:10.37,2013-01-10 16:43:00,
2013-01-10 10:49:00,38.9,23.7,30.21,South,171,10.0,10.0,54,0.00,CLR,,0.00,WeatherDisplay:10.37,2013-01-10 16:49:00,
2013-01-10 10:54:00,39.0,22.8,30.21,SSW,209,18.4,18.4,52,0.00,CLR,,0.00,WeatherDisplay:10.37,2013-01-10 16:54:00,
2013-01-10 10:59:00,39.1,22.9,30.21,South,184,11.5,11.5,52,0.00,CLR,,0.00,WeatherDisplay:10.37,2013-01-10 16:59:00,
2013-01-10 11:04:00,39.2,23.5,30.21,SSW,196,10.4,10.4,53,0.00,CLR,,0.00,WeatherDisplay:10.37,2013-01-10 17:04:00,
2013-01-10 11:09:00,39.2,23.5,30.20,South,190,6.9,6.9,53,0.00,CLR,,0.00,WeatherDisplay:10.37,2013-01-10 17:09:00,
2013-01-10 11:14:00,39.2,23.5,30.20,South,190,9.2,9.2,53,0.00,CLR,,0.00,WeatherDisplay:10.37,2013-01-10 17:14:00,
2013-01-10 11:19:00,39.3,23.6,30.20,SSE,165,5.8,7.0,53,0.00,CLR,,0.00,WeatherDisplay:10.37,2013-01-10 17:19:00,
2013-01-10 11:24:00,39.4,23.2,30.19,SE,135,15.0,15.0,52,0.00,CLR,,0.00,WeatherDisplay:10.37,2013-01-10 17:24:00,
2013-01-10 11:29:00,39.4,22.8,30.19,SSW,196,18.4,18.4,51,0.00,CLR,,0.00,WeatherDisplay:10.37,2013-01-10 17:29:00,
2013-01-10 11:34:00,39.6,22.9,30.18,SSW,202,23.0,23.0,51,0.00,CLR,,0.00,WeatherDisplay:10.37,2013-01-10 17:34:00,
2013-01-10 11:39:00,39.8,22.7,30.18,South,178,11.5,11.5,50,0.00,CLR,,0.00,WeatherDisplay:10.37,2013-01-10 17:39:00,
2013-01-10 11:44:00,40.0,22.8,30.17,SSE,159,12.7,12.7,50,0.00,CLR,,0.00,WeatherDisplay:10.37,2013-01-10 17:44:00,
2013-01-10 11:49:00,40.2,23.0,30.17,ESE,111,3.5,3.5,50,0.00,CLR,,0.00,WeatherDisplay:10.37,2013-01-10 17:49:00,
2013-01-10 11:54:00,40.3,22.6,30.17,SE,141,11.5,11.5,49,0.00,CLR,,0.00,WeatherDisplay:10.37,2013-01-10 17:54:00,
2013-01-10 11:59:00,40.2,22.1,30.16,SSE,165,19.6,19.6,48,0.00,CLR,,0.00,WeatherDisplay:10.37,2013-01-10 17:59:00,
2013-01-10 12:04:00,40.1,22.0,30.16,South,182,15.0,15.0,48,0.00,CLR,,0.00,WeatherDisplay:10.37,2013-01-10 18:04:00,
2013-01-10 12:09:00,40.0,21.9,30.16,South,176,6.9,6.9,48,0.00,CLR,,0.00,WeatherDisplay:10.37,2013-01-10 18:09:00,
2013-01-10 12:14:00,40.1,22.4,30.15,ESE,115,9.2,9.2,49,0.00,CLR,,0.00,WeatherDisplay:10.37,2013-01-10 18:14:00,
2013-01-10 12:19:00,40.1,22.4,30.15,ESE,119,8.1,8.1,49,0.00,CLR,,0.00,WeatherDisplay:10.37,2013-01-10 18:19:00,
2013-01-10 12:24:00,40.0,22.8,30.14,ESE,123,2.3,2.3,50,0.00,CLR,,0.00,WeatherDisplay:10.37,2013-01-10 18:24:00,
2013-01-10 12:29:00,40.1,23.4,30.13,ESE,122,2.3,2.3,51,0.00,CLR,,0.00,WeatherDisplay:10.37,2013-01-10 18:29:00,
2013-01-10 12:34:00,40.2,23.0,30.13,ESE,120,1.1,1.1,50,0.00,CLR,,0.00,WeatherDisplay:10.37,2013-01-10 18:34:00,
2013-01-10 12:39:00,40.3,23.1,30.12,ESE,121,3.5,3.5,50,0.00,CLR,,0.00,WeatherDisplay:10.37,2013-01-10 18:39:00,
2013-01-10 12:44:00,40.2,22.5,30.12,SE,141,3.5,3.5,49,0.00,CLR,,0.00,WeatherDisplay:10.37,2013-01-10 18:44:00,
2013-01-10 12:49:00,40.3,23.1,30.12,ESE,108,1.1,0.0,50,0.00,CLR,,0.00,WeatherDisplay:10.37,2013-01-10 18:49:00,
2013-01-10 12:54:00,40.4,23.2,30.11,SE,126,4.6,4.6,50,0.00,CLR,,0.00,WeatherDisplay:10.37,2013-01-10 18:54:00,
2013-01-10 12:59:00,40.6,22.9,30.10,SE,137,3.5,3.5,49,0.00,CLR,,0.00,WeatherDisplay:10.37,2013-01-10 18:59:00,
2013-01-10 13:04:00,40.7,22.5,30.10,South,172,5.8,5.8,48,0.00,CLR,,0.00,WeatherDisplay:10.37,2013-01-10 19:04:00,
2013-01-10 13:09:00,40.6,22.4,30.09,SE,127,5.8,5.8,48,0.00,CLR,,0.00,WeatherDisplay:10.37,2013-01-10 19:09:00,
2013-01-10 13:14:00,40.4,22.2,30.08,ESE,121,6.9,6.9,48,0.00,CLR,,0.00,WeatherDisplay:10.37,2013-01-10 19:14:00,
2013-01-10 13:19:00,40.3,22.6,30.08,SE,137,10.4,10.4,49,0.00,CLR,,0.00,WeatherDisplay:10.37,2013-01-10 19:19:00,
2013-01-10 13:24:00,40.4,22.2,30.07,SE,146,6.9,6.9,48,0.00,CLR,,0.00,WeatherDisplay:10.37,2013-01-10 19:24:00,
2013-01-10 13:29:00,40.4,22.7,30.07,ESE,107,3.5,3.5,49,0.00,CLR,,0.00,WeatherDisplay:10.37,2013-01-10 19:29:00,
2013-01-10 13:34:00,40.2,23.5,30.07,ESE,112,4.6,4.6,51,0.00,CLR,,0.00,WeatherDisplay:10.37,2013-01-10 19:34:00,
2013-01-10 13:39:00,39.6,23.9,30.07,SE,146,6.9,6.9,53,0.00,CLR,,0.00,WeatherDisplay:10.37,2013-01-10 19:39:00,
2013-01-10 13:44:00,39.3,24.0,30.06,ENE,78,3.5,3.5,54,0.00,CLR,,0.00,WeatherDisplay:10.37,2013-01-10 19:44:00,
2013-01-10 13:49:00,39.0,23.7,30.07,East,98,5.8,5.8,54,0.00,CLR,,0.00,WeatherDisplay:10.37,2013-01-10 19:49:00,
2013-01-10 13:54:00,38.9,23.7,30.06,ESE,123,6.9,6.9,54,0.00,CLR,,0.00,WeatherDisplay:10.37,2013-01-10 19:54:00,
2013-01-10 14:00:00,38.7,23.5,30.06,SSE,165,4.6,4.6,54,0.00,CLR,,0.00,WeatherDisplay:10.37,2013-01-10 20:00:00,
2013-01-10 14:05:00,38.6,23.8,30.06,ESE,107,4.6,4.6,55,0.00,CLR,,0.00,WeatherDisplay:10.37,2013-01-10 20:05:00,
2013-01-10 14:10:00,38.6,23.4,30.05,SE,127,5.8,5.8,54,0.00,CLR,,0.00,WeatherDisplay:10.37,2013-01-10 20:10:00,
2013-01-10 14:15:00,38.4,23.2,30.05,SSE,161,13.8,13.8,54,0.00,CLR,,0.00,WeatherDisplay:10.37,2013-01-10 20:15:00,
2013-01-10 14:20:00,38.2,23.0,30.06,ESE,105,3.5,3.5,54,0.00,CLR,,0.00,WeatherDisplay:10.37,2013-01-10 20:20:00,
2013-01-10 14:25:00,38.2,23.0,30.06,SSE,157,4.6,4.6,54,0.00,CLR,,0.00,WeatherDisplay:10.37,2013-01-10 20:25:00,
2013-01-10 14:30:00,38.1,22.9,30.05,SSE,152,6.9,6.9,54,0.00,CLR,,0.00,WeatherDisplay:10.37,2013-01-10 20:30:00,
2013-01-10 14:35:00,38.0,22.8,30.06,SSE,163,17.3,17.3,54,0.00,CLR,,0.00,WeatherDisplay:10.37,2013-01-10 20:35:00,
2013-01-10 14:40:00,38.0,22.8,30.06,South,175,10.4,10.4,54,0.00,CLR,,0.00,WeatherDisplay:10.37,2013-01-10 20:40:00,
2013-01-10 14:45:00,38.0,22.4,30.06,ESE,107,4.6,4.6,53,0.00,CLR,,0.00,WeatherDisplay:10.37,2013-01-10 20:45:00,
2013-01-10 14:50:00,38.0,22.4,30.06,South,180,11.5,11.5,53,0.00,CLR,,0.00,WeatherDisplay:10.37,2013-01-10 20:50:00,
2013-01-10 14:55:00,38.0,22.4,30.05,SE,130,9.2,9.2,53,0.00,CLR,,0.00,WeatherDisplay:10.37,2013-01-10 20:55:00,
2013-01-10 15:00:00,38.0,22.4,30.04,ESE,116,3.5,3.5,53,0.00,CLR,,0.00,WeatherDisplay:10.37,2013-01-10 21:00:00,
2013-01-10 15:05:00,38.2,22.1,30.04,ESE,113,5.8,5.8,52,0.00,CLR,,0.00,WeatherDisplay:10.37,2013-01-10 21:05:00,
2013-01-10 15:10:00,38.3,21.7,30.03,SSE,148,3.5,3.5,51,0.00,CLR,,0.00,WeatherDisplay:10.37,2013-01-10 21:10:00,
2013-01-10 15:15:00,38.6,21.5,30.03,SE,132,3.5,3.5,50,0.00,CLR,,0.00,WeatherDisplay:10.37,2013-01-10 21:15:00,
2013-01-10 15:20:00,38.6,21.5,30.03,SE,124,6.9,6.9,50,0.00,CLR,,0.00,WeatherDisplay:10.37,2013-01-10 21:20:00,
2013-01-10 15:25:00,38.6,21.5,30.03,SE,126,4.6,4.6,50,0.00,CLR,,0.00,WeatherDisplay:10.37,2013-01-10 21:25:00,
2013-01-10 15:30:00,38.6,21.5,30.03,SSE,157,9.2,9.2,50,0.00,CLR,,0.00,WeatherDisplay:10.37,2013-01-10 21:30:00,
2013-01-10 15:35:00,38.6,21.1,30.02,East,101,12.7,12.7,49,0.00,CLR,,0.00,WeatherDisplay:10.37,2013-01-10 21:35:00,
2013-01-10 15:40:00,38.6,21.1,30.02,SSE,157,9.2,9.2,49,0.00,CLR,,0.00,WeatherDisplay:10.37,2013-01-10 21:40:00,
2013-01-10 15:45:00,38.6,21.5,30.02,East,88,5.8,5.8,50,0.00,CLR,,0.00,WeatherDisplay:10.37,2013-01-10 21:45:00,
2013-01-10 15:50:00,38.5,21.9,30.02,East,90,3.5,3.5,51,0.00,CLR,,0.00,WeatherDisplay:10.37,2013-01-10 21:50:00,
2013-01-10 15:55:00,38.3,22.2,30.02,East,95,3.5,3.5,52,0.00,CLR,,0.00,WeatherDisplay:10.37,2013-01-10 21:55:00,
2013-01-10 16:00:00,38.0,22.8,30.02,East,97,5.8,5.8,54,0.00,CLR,,0.00,WeatherDisplay:10.37,2013-01-10 22:00:00,
2013-01-10 16:05:00,37.7,23.0,30.02,ESE,109,3.5,3.5,55,0.00,CLR,,0.00,WeatherDisplay:10.37,2013-01-10 22:05:00,
2013-01-10 16:10:00,37.1,23.7,30.01,East,96,6.9,6.9,58,0.00,CLR,,0.00,WeatherDisplay:10.37,2013-01-10 22:10:00,
2013-01-10 16:15:00,36.7,24.1,30.01,East,100,5.8,5.8,60,0.00,CLR,,0.00,WeatherDisplay:10.37,2013-01-10 22:15:00,
2013-01-10 16:20:00,36.3,24.5,30.00,SSE,148,3.5,3.5,62,0.00,CLR,,0.00,WeatherDisplay:10.37,2013-01-10 22:20:00,
2013-01-10 16:25:00,36.0,24.6,30.01,ESE,105,4.6,4.6,63,0.00,CLR,,0.00,WeatherDisplay:10.37,2013-01-10 22:25:00,
2013-01-10 16:30:00,35.6,25.0,30.00,ESE,116,3.5,3.5,65,0.01,RA,,0.01,WeatherDisplay:10.37,2013-01-10 22:30:00,
2013-01-10 16:35:00,35.1,25.6,29.99,East,94,3.5,3.5,68,0.02,RA,,0.02,WeatherDisplay:10.37,2013-01-10 22:35:00,
2013-01-10 16:40:00,34.7,25.9,29.99,East,94,4.6,4.6,70,0.02,RA,,0.02,WeatherDisplay:10.37,2013-01-10 22:40:00,
2013-01-10 16:45:00,34.4,26.0,29.99,ESE,113,3.5,0.0,71,0.02,CLR,,0.02,WeatherDisplay:10.37,2013-01-10 22:45:00,
2013-01-10 16:51:00,34.4,26.3,29.98,East,99,2.3,2.3,72,0.03,RA,,0.03,WeatherDisplay:10.37,2013-01-10 22:51:00,
2013-01-10 16:56:00,34.2,26.4,29.97,ESE,105,3.5,3.5,73,0.03,RA,,0.03,WeatherDisplay:10.37,2013-01-10 22:56:00,
2013-01-10 17:01:00,34.0,26.6,29.97,East,86,3.5,3.5,74,0.03,,,0.03,WeatherDisplay:10.37,2013-01-10 23:01:00,
2013-01-10 17:06:00,33.9,26.8,29.97,ESE,109,4.6,4.6,75,0.03,CLR,,0.03,WeatherDisplay:10.37,2013-01-10 23:06:00,
2013-01-10 17:11:00,33.7,27.3,29.96,SSE,155,0.0,0.0,77,0.04,RA,,0.04,WeatherDisplay:10.37,2013-01-10 23:11:00,
2013-01-10 17:16:00,33.6,27.2,29.96,SE,128,3.5,3.5,77,0.04,RA,,0.04,WeatherDisplay:10.37,2013-01-10 23:16:00,
2013-01-10 17:21:00,33.5,27.4,29.96,ESE,113,2.0,2.0,78,0.04,CLR,,0.05,WeatherDisplay:10.37,2013-01-10 23:21:00,
2013-01-10 17:26:00,33.4,27.6,29.95,ESE,102,2.3,2.3,79,0.05,RA,,0.05,WeatherDisplay:10.37,2013-01-10 23:26:00,
2013-01-10 17:31:00,33.3,27.5,29.96,ESE,119,3.5,3.5,79,0.05,RA,,0.06,WeatherDisplay:10.37,2013-01-10 23:31:00,
2013-01-10 17:36:00,33.2,27.7,29.96,ESE,105,1.1,1.1,80,0.05,RA,,0.07,WeatherDisplay:10.37,2013-01-10 23:36:00,
2013-01-10 17:41:00,33.1,27.6,29.96,ESE,104,3.5,3.5,80,0.05,RA,,0.07,WeatherDisplay:10.37,2013-01-10 23:41:00,
2013-01-10 17:47:00,33.1,27.9,29.96,South,180,3.5,3.5,81,0.06,RA,,0.08,WeatherDisplay:10.37,2013-01-10 23:47:00,
2013-01-10 17:52:00,33.0,28.1,29.95,ESE,102,4.6,4.6,82,0.05,RA,,0.08,WeatherDisplay:10.37,2013-01-10 23:52:00,
2013-01-10 17:57:00,33.0,28.1,29.94,ESE,123,4.6,4.6,82,0.06,RA,,0.09,WeatherDisplay:10.37,2013-01-10 23:57:00,
2013-01-10 18:02:00,33.0,28.1,29.93,ESE,116,11.5,11.5,82,0.06,RA,,0.09,WeatherDisplay:10.37,2013-01-11 00:02:00,
2013-01-10 18:07:00,32.8,28.2,29.93,SE,128,3.5,3.5,83,0.08,RA,,0.11,WeatherDisplay:10.37,2013-01-11 00:07:00,
2013-01-10 18:12:00,32.7,28.4,29.92,ESE,110,12.7,12.7,84,0.08,RA,,0.12,WeatherDisplay:10.37,2013-01-11 00:12:00,
2013-01-10 18:17:00,32.6,28.3,29.92,ESE,113,9.2,9.2,84,0.10,RA,,0.14,WeatherDisplay:10.37,2013-01-11 00:17:00,
2013-01-10 18:22:00,32.6,28.6,29.92,ESE,121,9.2,9.2,85,0.10,RA,,0.15,WeatherDisplay:10.37,2013-01-11 00:22:00,
2013-01-10 18:27:00,32.6,28.6,29.92,SSE,149,10.4,10.4,85,0.10,RA,,0.15,WeatherDisplay:10.37,2013-01-11 00:27:00,
2013-01-10 18:32:00,32.6,28.6,29.91,ESE,123,10.4,10.4,85,0.10,RA,,0.16,WeatherDisplay:10.37,2013-01-11 00:32:00,
2013-01-10 18:37:00,32.6,28.6,29.91,East,92,11.5,11.5,85,0.09,RA,,0.16,WeatherDisplay:10.37,2013-01-11 00:37:00,
2013-01-10 18:42:00,32.6,28.6,29.91,SE,128,16.1,16.1,85,0.10,RA,,0.17,WeatherDisplay:10.37,2013-01-11 00:42:00,
2013-01-10 18:47:00,32.5,28.8,29.90,ESE,123,16.1,16.1,86,0.09,RA,,0.17,WeatherDisplay:10.37,2013-01-11 00:47:00,
2013-01-10 18:52:00,32.4,28.7,29.90,SE,133,11.5,11.5,86,0.10,RA,,0.18,WeatherDisplay:10.37,2013-01-11 00:52:00,
2013-01-10 18:57:00,32.4,28.7,29.90,ESE,119,16.1,16.1,86,0.09,RA,,0.18,WeatherDisplay:10.37,2013-01-11 00:57:00,
2013-01-10 19:02:00,32.4,29.0,29.89,East,87,8.1,8.1,87,0.09,CLR,,0.19,WeatherDisplay:10.37,2013-01-11 01:02:00,
2013-01-10 19:07:00,32.4,29.0,29.89,SE,142,6.0,6.0,87,0.08,RA,,0.19,WeatherDisplay:10.37,2013-01-11 01:07:00,
2013-01-10 19:12:00,32.4,29.0,29.89,SE,146,12.7,12.7,87,0.07,RA,,0.19,WeatherDisplay:10.37,2013-01-11 01:12:00,
2013-01-10 19:17:00,32.4,29.0,29.89,ESE,115,11.5,11.5,87,0.05,CLR,,0.19,WeatherDisplay:10.37,2013-01-11 01:17:00,
2013-01-10 19:23:00,32.4,29.0,29.88,East,86,11.5,11.5,87,0.05,RA,,0.20,WeatherDisplay:10.37,2013-01-11 01:23:00,
2013-01-10 19:28:00,32.4,29.0,29.87,ESE,107,7.0,7.0,87,0.05,RA,,0.20,WeatherDisplay:10.37,2013-01-11 01:28:00,
2013-01-10 19:33:00,32.4,29.0,29.87,SE,132,3.5,3.5,87,0.05,RA,,0.21,WeatherDisplay:10.37,2013-01-11 01:33:00,
2013-01-10 19:38:00,32.4,29.0,29.86,SE,138,11.5,11.5,87,0.05,RA,,0.21,WeatherDisplay:10.37,2013-01-11 01:38:00,
2013-01-10 19:43:00,32.4,29.0,29.85,East,100,9.2,9.2,87,0.04,,,0.21,WeatherDisplay:10.37,2013-01-11 01:43:00,
2013-01-10 19:48:00,32.4,29.0,29.85,SSE,148,10.4,10.4,87,0.04,CLR,,0.21,WeatherDisplay:10.37,2013-01-11 01:48:00,
2013-01-10 19:53:00,32.4,29.0,29.85,ESE,107,11.5,11.5,87,0.04,RA,,0.22,WeatherDisplay:10.37,2013-01-11 01:53:00,
2013-01-10 19:58:00,32.4,29.2,29.84,SE,141,9.2,9.2,88,0.06,RA,,0.24,WeatherDisplay:10.37,2013-01-11 01:58:00,
2013-01-10 20:03:00,32.4,29.2,29.85,SSE,155,11.5,11.5,88,0.06,RA,,0.25,WeatherDisplay:10.37,2013-01-11 02:03:00,
2013-01-10 20:08:00,32.4,29.2,29.85,South,169,6.9,6.9,88,0.07,RA,,0.27,WeatherDisplay:10.37,2013-01-11 02:08:00,
2013-01-10 20:13:00,32.4,29.2,29.85,East,92,12.7,12.7,88,0.08,RA,,0.27,WeatherDisplay:10.37,2013-01-11 02:13:00,
2013-01-10 20:18:00,32.5,29.6,29.85,South,176,11.5,11.5,89,0.09,RA,,0.28,WeatherDisplay:10.37,2013-01-11 02:18:00,
2013-01-10 20:23:00,32.5,29.6,29.85,SSE,156,10.4,10.4,89,0.09,RA,,0.29,WeatherDisplay:10.37,2013-01-11 02:23:00,
2013-01-10 20:28:00,32.5,29.6,29.84,SE,144,4.6,4.6,89,0.09,RA,,0.29,WeatherDisplay:10.37,2013-01-11 02:28:00,
2013-01-10 20:33:00,32.5,29.6,29.84,ESE,107,9.2,9.2,89,0.09,RA,,0.30,WeatherDisplay:10.37,2013-01-11 02:33:00,
2013-01-10 20:38:00,32.6,29.7,29.83,SE,133,9.2,9.2,89,0.09,RA,,0.30,WeatherDisplay:10.37,2013-01-11 02:38:00,
2013-01-10 20:43:00,32.7,30.1,29.82,SSE,159,13.8,13.8,90,0.09,CLR,,0.30,WeatherDisplay:10.37,2013-01-11 02:43:00,
2013-01-10 20:48:00,32.7,30.1,29.82,SSE,150,16.1,16.1,90,0.09,CLR,,0.30,WeatherDisplay:10.37,2013-01-11 02:48:00,
2013-01-10 20:53:00,32.8,30.2,29.81,ESE,105,10.4,10.4,90,0.08,CLR,,0.30,WeatherDisplay:10.37,2013-01-11 02:53:00,
2013-01-10 20:58:00,32.8,30.2,29.81,SSE,154,5.8,5.8,90,0.06,CLR,,0.30,WeatherDisplay:10.37,2013-01-11 02:58:00,
2013-01-10 21:03:00,32.9,30.3,29.80,SE,138,3.5,3.5,90,0.05,CLR,,0.30,WeatherDisplay:10.37,2013-01-11 03:03:00,
2013-01-10 21:09:00,33.0,30.4,29.81,SE,128,6.9,6.9,90,0.04,CLR,,0.30,WeatherDisplay:10.37,2013-01-11 03:09:00,
2013-01-10 21:14:00,33.1,30.5,29.81,SSE,151,9.2,9.2,90,0.03,CLR,,0.30,WeatherDisplay:10.37,2013-01-11 03:14:00,
2013-01-10 21:19:00,33.2,30.6,29.80,SSE,150,4.0,5.3,90,0.02,CLR,,0.30,WeatherDisplay:10.37,2013-01-11 03:19:00,
2013-01-10 21:24:00,33.3,30.7,29.80,SSW,205,12.0,12.0,90,0.01,CLR,,0.30,WeatherDisplay:10.37,2013-01-11 03:24:00,
2013-01-10 21:29:00,33.3,30.7,29.79,SE,144,5.8,5.8,90,0.01,CLR,,0.30,WeatherDisplay:10.37,2013-01-11 03:29:00,
2013-01-10 21:34:00,33.4,30.8,29.79,ESE,121,13.0,13.0,90,0.00,CLR,,0.30,WeatherDisplay:10.37,2013-01-11 03:34:00,
2013-01-10 21:39:00,33.4,30.8,29.78,South,188,3.5,3.5,90,0.00,CLR,,0.30,WeatherDisplay:10.37,2013-01-11 03:39:00,
2013-01-10 21:44:00,33.5,30.9,29.78,ESE,105,10.4,10.4,90,0.00,CLR,,0.30,WeatherDisplay:10.37,2013-01-11 03:44:00,
2013-01-10 21:49:00,33.6,31.0,29.78,SSE,150,3.5,6.2,90,0.00,CLR,,0.30,WeatherDisplay:10.37,2013-01-11 03:49:00,
2013-01-10 21:54:00,33.7,31.4,29.77,SE,125,5.8,5.8,91,0.00,CLR,,0.30,WeatherDisplay:10.37,2013-01-11 03:54:00,
2013-01-10 21:59:00,33.7,31.4,29.77,SSE,148,4.6,4.6,91,0.00,CLR,,0.30,WeatherDisplay:10.37,2013-01-11 03:59:00,
2013-01-10 22:04:00,33.8,31.5,29.77,South,175,4.6,4.6,91,0.00,CLR,,0.30,WeatherDisplay:10.37,2013-01-11 04:04:00,
2013-01-10 22:09:00,33.9,31.6,29.78,SSE,157,5.8,5.8,91,0.00,CLR,,0.30,WeatherDisplay:10.37,2013-01-11 04:09:00,
2013-01-10 22:14:00,34.0,31.6,29.78,South,177,3.5,0.0,91,0.00,CLR,,0.30,WeatherDisplay:10.37,2013-01-11 04:14:00,
2013-01-10 22:19:00,34.1,31.7,29.78,SSE,167,3.5,3.5,91,0.00,CLR,,0.30,WeatherDisplay:10.37,2013-01-11 04:19:00,
2013-01-10 22:24:00,34.1,31.7,29.78,SE,134,3.5,3.5,91,0.00,CLR,,0.30,WeatherDisplay:10.37,2013-01-11 04:24:00,
2013-01-10 22:29:00,34.1,31.7,29.78,SSW,205,1.0,2.3,91,0.00,CLR,,0.30,WeatherDisplay:10.37,2013-01-11 04:29:00,
2013-01-10 22:35:00,34.1,31.7,29.78,SSE,165,5.8,5.8,91,0.00,CLR,,0.30,WeatherDisplay:10.37,2013-01-11 04:35:00,
2013-01-10 22:40:00,34.1,31.7,29.78,SSE,163,5.8,5.8,91,0.00,CLR,,0.30,WeatherDisplay:10.37,2013-01-11 04:40:00,
2013-01-10 22:45:00,34.1,31.7,29.77,SSE,162,4.6,4.6,91,0.00,CLR,,0.30,WeatherDisplay:10.37,2013-01-11 04:45:00,
2013-01-10 22:50:00,34.0,31.6,29.77,South,191,11.5,11.5,91,0.00,CLR,,0.30,WeatherDisplay:10.37,2013-01-11 04:50:00,
2013-01-10 22:55:00,34.0,31.6,29.77,SE,130,5.8,5.8,91,0.00,CLR,,0.30,WeatherDisplay:10.37,2013-01-11 04:55:00,
2013-01-10 23:01:00,34.0,31.6,29.76,SSE,152,9.2,0.0,91,0.00,CLR,,0.30,WeatherDisplay:10.37,2013-01-11 05:01:00,
2013-01-10 23:03:00,33.9,31.6,29.76,SSE,165,10.4,10.4,91,0.00,CLR,,0.30,WeatherDisplay:10.37,2013-01-11 05:03:00,
2013-01-10 23:08:00,33.9,31.6,29.75,SSE,157,4.6,4.6,91,0.00,CLR,,0.30,WeatherDisplay:10.37,2013-01-11 05:08:00,
2013-01-10 23:13:00,33.9,31.6,29.76,SSW,192,6.9,6.9,91,0.01,RA,,0.31,WeatherDisplay:10.37,2013-01-11 05:13:00,
2013-01-10 23:18:00,33.9,31.6,29.76,SE,128,0.0,0.0,91,0.01,RA,,0.31,WeatherDisplay:10.37,2013-01-11 05:18:00,
2013-01-10 23:23:00,33.9,31.8,29.76,SSW,194,8.1,8.1,92,0.01,CLR,,0.31,WeatherDisplay:10.37,2013-01-11 05:23:00,
2013-01-10 23:28:00,33.9,31.8,29.76,SSE,157,3.5,0.0,92,0.01,CLR,,0.31,WeatherDisplay:10.37,2013-01-11 05:28:00,
2013-01-10 23:33:00,33.9,31.8,29.77,South,177,10.4,10.4,92,0.01,CLR,,0.31,WeatherDisplay:10.37,2013-01-11 05:33:00,
2013-01-10 23:38:00,34.0,31.9,29.76,SE,144,6.9,6.9,92,0.01,CLR,,0.31,WeatherDisplay:10.37,2013-01-11 05:38:00,
2013-01-10 23:43:00,34.1,32.0,29.76,SSE,152,4.6,4.6,92,0.01,CLR,,0.31,WeatherDisplay:10.37,2013-01-11 05:43:00,
2013-01-10 23:48:00,34.1,32.0,29.75,South,187,11.5,11.5,92,0.01,CLR,,0.31,WeatherDisplay:10.37,2013-01-11 05:48:00,
2013-01-10 23:53:00,34.1,32.0,29.75,SSE,154,11.5,11.5,92,0.01,CLR,,0.31,WeatherDisplay:10.37,2013-01-11 05:53:00,
2013-01-10 23:58:00,34.1,32.0,29.75,SE,141,10.4,10.4,92,0.01,CLR,,0.31,WeatherDisplay:10.37,2013-01-11 05:58:00,